Time;durP1;ratioP1;P1;durP2;ratioP2;P2;SDS_P1;SDS_P2;PMS_P1;PMS_P2;Temp;Humidity;BMP_temperature;BMP_pressure;BME280_temperature;BME280_humidity;BME280_pressure;Samples;Min_cycle;Max_cycle;Signal;HPM_P1;HPM_P2
2020/12/19 00:00:50;;;;;;;9.33;7.10;;;;;;;;;;5052263;28;20421;-76
2020/12/19 00:03:16;;;;;;;9.30;6.97;;;;;;;;;;5039243;28;20551;-76
2020/12/19 00:05:42;;;;;;;11.27;6.90;;;;;;;;;;5059065;28;20479;-76
2020/12/19 00:08:08;;;;;;;12.90;6.90;;;;;;;;;;5059735;28;20759;-76
2020/12/19 00:10:34;;;;;;;10.23;6.57;;;;;;;;;;5058645;28;20416;-77
2020/12/19 00:13:00;;;;;;;8.17;6.50;;;;;;;;;;5059768;28;20402;-76
2020/12/19 00:15:27;;;;;;;7.20;5.90;;;;;;;;;;5059024;28;20422;-76
2020/12/19 00:17:53;;;;;;;8.23;5.70;;;;;;;;;;5059417;28;20507;-77
2020/12/19 00:20:19;;;;;;;9.63;6.63;;;;;;;;;;5058551;28;20422;-76
2020/12/19 00:22:45;;;;;;;7.27;5.50;;;;;;;;;;5058670;28;20433;-76
2020/12/19 00:25:12;;;;;;;8.90;6.50;;;;;;;;;;5054476;28;20457;-76
2020/12/19 00:27:38;;;;;;;9.20;7.30;;;;;;;;;;5058923;28;20441;-76
2020/12/19 00:30:04;;;;;;;8.03;6.27;;;;;;;;;;5059866;28;20433;-76
2020/12/19 00:32:30;;;;;;;8.70;6.37;;;;;;;;;;5057732;28;20453;-76
2020/12/19 00:34:57;;;;;;;10.27;6.00;;;;;;;;;;5059377;28;20455;-77
2020/12/19 00:37:23;;;;;;;8.23;6.93;;;;;;;;;;5037199;28;20459;-76
2020/12/19 00:39:49;;;;;;;8.70;6.47;;;;;;;;;;5058436;28;20425;-76
2020/12/19 00:42:15;;;;;;;8.97;6.17;;;;;;;;;;5058689;28;20862;-76
2020/12/19 00:44:41;;;;;;;7.47;5.97;;;;;;;;;;5059384;28;20958;-77
2020/12/19 00:47:07;;;;;;;8.90;6.27;;;;;;;;;;5058212;28;20425;-76
2020/12/19 00:49:33;;;;;;;7.97;5.53;;;;;;;;;;5059215;28;20406;-76
2020/12/19 00:51:59;;;;;;;9.17;6.80;;;;;;;;;;5058734;28;20822;-76
2020/12/19 00:54:25;;;;;;;7.90;5.93;;;;;;;;;;5058475;28;20451;-76
2020/12/19 00:56:52;;;;;;;9.60;6.30;;;;;;;;;;5058108;28;20526;-77
2020/12/19 00:59:18;;;;;;;10.40;6.87;;;;;;;;;;5059380;28;20409;-76
2020/12/19 01:01:44;;;;;;;9.27;5.80;;;;;;;;;;5058141;28;20425;-76
2020/12/19 01:04:10;;;;;;;7.27;5.87;;;;;;;;;;5059425;28;20448;-76
2020/12/19 01:06:36;;;;;;;11.10;6.40;;;;;;;;;;5040616;28;20442;-75
2020/12/19 01:09:04;;;;;;;8.07;5.50;;;;;;;;;;5059340;28;20405;-76
2020/12/19 01:11:30;;;;;;;6.20;5.23;;;;;;;;;;5057196;28;20779;-75
2020/12/19 01:13:56;;;;;;;7.70;6.07;;;;;;;;;;5057317;28;20418;-76
2020/12/19 01:16:24;;;;;;;8.57;5.90;;;;;;;;;;5054543;28;20460;-75
2020/12/19 01:18:51;;;;;;;7.57;5.77;;;;;;;;;;5036106;28;20409;-75
2020/12/19 01:21:18;;;;;;;7.70;5.30;;;;;;;;;;5035943;28;20406;-76
2020/12/19 01:23:45;;;;;;;6.70;5.23;;;;;;;;;;5054631;28;20448;-75
2020/12/19 01:26:12;;;;;;;7.37;5.57;;;;;;;;;;5054101;28;20424;-75
2020/12/19 01:28:38;;;;;;;8.20;6.20;;;;;;;;;;5049225;28;20836;-75
2020/12/19 01:31:05;;;;;;;11.00;6.33;;;;;;;;;;5054709;28;21003;-75
2020/12/19 01:33:31;;;;;;;6.93;6.13;;;;;;;;;;5054526;28;20920;-76
2020/12/19 01:35:57;;;;;;;7.30;5.50;;;;;;;;;;5055653;28;20465;-76
2020/12/19 01:38:24;;;;;;;8.07;5.90;;;;;;;;;;5054604;28;20426;-75
2020/12/19 01:40:54;;;;;;;9.17;6.43;;;;;;;;;;5054478;28;20513;-75
2020/12/19 01:43:20;;;;;;;6.93;5.23;;;;;;;;;;5054668;28;20430;-75
2020/12/19 01:45:47;;;;;;;8.30;6.17;;;;;;;;;;5055415;28;20463;-76
2020/12/19 01:48:24;;;;;;;7.37;5.30;;;;;;;;;;5054198;28;20536;-75
2020/12/19 01:50:51;;;;;;;8.70;6.03;;;;;;;;;;5055117;28;20402;-76
2020/12/19 01:53:17;;;;;;;9.00;5.70;;;;;;;;;;5054095;28;20457;-76
2020/12/19 01:55:44;;;;;;;9.90;5.90;;;;;;;;;;5054930;28;20434;-76
2020/12/19 01:58:10;;;;;;;10.17;6.60;;;;;;;;;;5054248;28;20456;-75
2020/12/19 02:00:39;;;;;;;6.77;5.27;;;;;;;;;;5055214;28;20394;-76
2020/12/19 02:03:05;;;;;;;8.27;6.03;;;;;;;;;;5053874;28;20428;-76
2020/12/19 02:05:36;;;;;;;7.43;5.90;;;;;;;;;;5053859;28;20449;-76
2020/12/19 02:08:02;;;;;;;9.93;6.33;;;;;;;;;;5051682;28;20453;-77
2020/12/19 02:10:32;;;;;;;8.10;5.87;;;;;;;;;;5055075;28;20432;-76
2020/12/19 02:12:59;;;;;;;7.20;5.80;;;;;;;;;;5052851;28;20430;-76
2020/12/19 02:15:25;;;;;;;8.30;6.97;;;;;;;;;;5054726;28;20496;-76
2020/12/19 02:17:51;;;;;;;10.37;6.40;;;;;;;;;;5052275;28;20553;-75
2020/12/19 02:20:18;;;;;;;9.13;5.77;;;;;;;;;;5054651;28;20883;-75
2020/12/19 02:22:44;;;;;;;9.00;6.33;;;;;;;;;;5053560;28;20417;-74
2020/12/19 02:25:10;;;;;;;7.20;5.60;;;;;;;;;;5054162;28;20821;-75
2020/12/19 02:27:36;;;;;;;12.07;6.30;;;;;;;;;;5069283;22;21039;-85
2020/12/19 02:30:02;;;;;;;5.57;4.97;;;;;;;;;;5101444;28;20424;-85
2020/12/19 02:32:28;;;;;;;10.77;5.80;;;;;;;;;;5102404;28;20416;-85
2020/12/19 02:34:54;;;;;;;7.70;5.10;;;;;;;;;;5103568;28;20417;-85
2020/12/19 02:37:20;;;;;;;9.10;6.37;;;;;;;;;;5103002;28;20448;-85
2020/12/19 02:39:46;;;;;;;9.50;6.67;;;;;;;;;;5103059;28;20892;-85
2020/12/19 02:42:12;;;;;;;7.03;5.40;;;;;;;;;;5082887;28;20439;-85
2020/12/19 02:44:38;;;;;;;7.17;6.00;;;;;;;;;;5100181;28;20446;-85
2020/12/19 02:47:04;;;;;;;6.30;5.03;;;;;;;;;;5100940;28;20420;-85
2020/12/19 02:49:30;;;;;;;8.90;5.90;;;;;;;;;;5082406;28;20825;-85
2020/12/19 02:51:56;;;;;;;6.13;4.70;;;;;;;;;;5102749;28;20401;-85
2020/12/19 02:54:22;;;;;;;10.53;6.73;;;;;;;;;;5100504;28;20473;-85
2020/12/19 02:56:48;;;;;;;8.93;5.17;;;;;;;;;;5106285;28;20523;-84
2020/12/19 02:59:14;;;;;;;8.80;5.50;;;;;;;;;;5115198;28;20454;-84
2020/12/19 03:01:40;;;;;;;9.00;5.87;;;;;;;;;;5115909;28;20416;-86
2020/12/19 03:04:06;;;;;;;8.03;6.10;;;;;;;;;;5108255;28;20900;-85
2020/12/19 03:06:32;;;;;;;8.43;5.80;;;;;;;;;;5101992;28;20440;-85
2020/12/19 03:08:58;;;;;;;8.40;5.70;;;;;;;;;;5109618;28;20417;-85
2020/12/19 03:11:24;;;;;;;7.13;5.10;;;;;;;;;;5102782;28;20492;-85
2020/12/19 03:13:50;;;;;;;6.43;4.67;;;;;;;;;;5113629;28;20484;-83
2020/12/19 03:16:16;;;;;;;6.37;5.27;;;;;;;;;;5100194;28;20479;-86
2020/12/19 03:18:42;;;;;;;6.90;5.13;;;;;;;;;;5096003;28;20421;-86
2020/12/19 03:21:08;;;;;;;6.07;4.83;;;;;;;;;;5080171;28;20402;-85
2020/12/19 03:23:34;;;;;;;7.00;5.60;;;;;;;;;;5103522;28;20416;-83
2020/12/19 03:26:00;;;;;;;6.93;4.50;;;;;;;;;;5116062;28;20458;-84
2020/12/19 03:28:26;;;;;;;6.80;5.97;;;;;;;;;;5115191;28;20515;-84
2020/12/19 03:30:52;;;;;;;8.50;4.93;;;;;;;;;;5113563;28;20420;-83
2020/12/19 03:33:18;;;;;;;6.63;5.33;;;;;;;;;;5116121;28;20472;-84
2020/12/19 03:35:44;;;;;;;6.17;4.80;;;;;;;;;;5099847;28;20902;-84
2020/12/19 03:38:10;;;;;;;7.80;5.47;;;;;;;;;;5099170;28;20412;-85
2020/12/19 03:40:36;;;;;;;7.33;5.00;;;;;;;;;;5117480;28;20457;-86
2020/12/19 03:43:02;;;;;;;7.13;4.50;;;;;;;;;;5114046;28;20408;-86
2020/12/19 03:45:29;;;;;;;5.67;4.93;;;;;;;;;;5103452;28;20437;-86
2020/12/19 03:47:55;;;;;;;5.60;5.00;;;;;;;;;;5093984;28;20448;-87
2020/12/19 03:50:21;;;;;;;6.47;5.37;;;;;;;;;;5112863;28;20400;-86
2020/12/19 03:52:47;;;;;;;5.40;4.43;;;;;;;;;;5078038;28;20462;-86
2020/12/19 03:55:13;;;;;;;6.13;5.20;;;;;;;;;;5095363;28;20424;-86
2020/12/19 03:57:39;;;;;;;6.07;4.57;;;;;;;;;;5097365;28;20480;-86
2020/12/19 04:00:06;;;;;;;7.07;4.80;;;;;;;;;;5095224;28;20424;-86
2020/12/19 04:02:32;;;;;;;6.13;4.43;;;;;;;;;;5098433;28;20427;-86
2020/12/19 04:04:58;;;;;;;7.23;5.47;;;;;;;;;;5082948;28;20420;-86
2020/12/19 04:07:24;;;;;;;6.70;5.10;;;;;;;;;;5096473;28;20764;-86
2020/12/19 04:09:50;;;;;;;6.07;4.33;;;;;;;;;;5094518;28;20431;-86
2020/12/19 04:12:17;;;;;;;7.37;5.10;;;;;;;;;;5100754;28;20423;-86
2020/12/19 04:14:43;;;;;;;5.17;3.70;;;;;;;;;;5100926;28;20407;-89
2020/12/19 04:17:10;;;;;;;9.17;4.90;;;;;;;;;;5103518;28;20460;-86
2020/12/19 04:19:36;;;;;;;5.70;4.20;;;;;;;;;;5104939;28;20422;-86
2020/12/19 04:22:03;;;;;;;6.40;4.60;;;;;;;;;;5102669;28;20431;-86
2020/12/19 04:24:29;;;;;;;8.00;4.70;;;;;;;;;;5098257;28;20421;-86
2020/12/19 04:26:55;;;;;;;8.53;4.30;;;;;;;;;;5097123;28;20446;-85
2020/12/19 04:29:21;;;;;;;7.30;4.10;;;;;;;;;;5075378;28;20432;-86
2020/12/19 04:31:47;;;;;;;5.60;4.33;;;;;;;;;;5085248;28;20424;-86
2020/12/19 04:34:13;;;;;;;5.57;4.93;;;;;;;;;;5101402;28;20408;-86
2020/12/19 04:36:39;;;;;;;6.53;5.20;;;;;;;;;;5103296;28;20475;-86
2020/12/19 04:39:05;;;;;;;8.10;5.33;;;;;;;;;;5095945;28;20408;-85
2020/12/19 04:41:31;;;;;;;4.90;4.40;;;;;;;;;;5082319;28;20412;-87
2020/12/19 04:43:58;;;;;;;8.27;4.13;;;;;;;;;;5104077;28;20396;-86
2020/12/19 04:46:26;;;;;;;8.43;5.83;;;;;;;;;;5103321;28;20434;-88
2020/12/19 04:48:52;;;;;;;5.77;3.73;;;;;;;;;;5104681;28;20400;-86
2020/12/19 04:51:19;;;;;;;6.07;4.93;;;;;;;;;;5106706;28;20400;-87
2020/12/19 04:53:45;;;;;;;4.83;4.27;;;;;;;;;;5070059;28;20421;-87
2020/12/19 04:56:13;;;;;;;8.23;5.50;;;;;;;;;;5086057;28;20824;-86
2020/12/19 04:58:39;;;;;;;5.20;3.93;;;;;;;;;;5104410;28;20424;-86
2020/12/19 05:01:05;;;;;;;7.07;4.90;;;;;;;;;;5107640;28;20396;-86
2020/12/19 05:03:31;;;;;;;5.67;3.87;;;;;;;;;;5103993;28;20451;-86
2020/12/19 05:05:58;;;;;;;6.83;4.77;;;;;;;;;;5109043;28;20420;-86
2020/12/19 05:08:24;;;;;;;5.53;4.60;;;;;;;;;;5111942;28;20428;-85
2020/12/19 05:10:50;;;;;;;7.30;5.27;;;;;;;;;;5112926;28;20399;-86
2020/12/19 05:13:16;;;;;;;8.53;4.57;;;;;;;;;;5108889;28;20483;-86
2020/12/19 05:15:42;;;;;;;4.57;4.00;;;;;;;;;;5112407;28;20514;-86
2020/12/19 05:18:08;;;;;;;7.10;4.17;;;;;;;;;;5109786;28;20448;-87
2020/12/19 05:20:34;;;;;;;6.73;4.80;;;;;;;;;;5111512;28;20467;-86
2020/12/19 05:23:00;;;;;;;8.40;4.77;;;;;;;;;;5108019;28;20420;-86
2020/12/19 05:25:27;;;;;;;6.50;4.83;;;;;;;;;;5106639;28;20987;-86
2020/12/19 05:27:54;;;;;;;4.83;4.10;;;;;;;;;;5106426;28;20451;-86
2020/12/19 05:30:20;;;;;;;5.50;4.73;;;;;;;;;;5089490;28;20545;-86
2020/12/19 05:32:50;;;;;;;6.27;4.10;;;;;;;;;;5084236;28;20433;-87
2020/12/19 05:35:18;;;;;;;5.17;4.60;;;;;;;;;;5105497;28;20444;-86
2020/12/19 05:37:44;;;;;;;6.43;4.30;;;;;;;;;;5105237;28;20452;-86
2020/12/19 05:40:12;;;;;;;7.80;4.93;;;;;;;;;;5107114;28;20408;-86
2020/12/19 05:42:41;;;;;;;5.73;4.93;;;;;;;;;;5087588;28;20470;-86
2020/12/19 05:45:14;;;;;;;8.07;5.77;;;;;;;;;;5106751;28;20503;-86
2020/12/19 05:47:40;;;;;;;9.00;5.60;;;;;;;;;;5088185;28;20931;-86
2020/12/19 05:50:06;;;;;;;8.97;5.20;;;;;;;;;;5106714;28;20408;-87
2020/12/19 05:52:33;;;;;;;5.37;4.03;;;;;;;;;;5104980;28;20420;-87
2020/12/19 05:55:02;;;;;;;6.20;4.13;;;;;;;;;;5105510;28;20411;-86
2020/12/19 05:57:29;;;;;;;5.87;5.10;;;;;;;;;;5105006;28;20452;-86
2020/12/19 05:59:58;;;;;;;6.43;5.23;;;;;;;;;;5088272;28;20416;-86
2020/12/19 06:02:24;;;;;;;5.60;3.80;;;;;;;;;;5103019;28;20420;-86
2020/12/19 06:04:52;;;;;;;5.63;4.40;;;;;;;;;;5096954;28;20431;-86
2020/12/19 06:07:18;;;;;;;8.23;4.90;;;;;;;;;;5096710;28;20434;-86
2020/12/19 06:09:44;;;;;;;5.90;4.07;;;;;;;;;;5097674;28;20424;-87
2020/12/19 06:12:13;;;;;;;6.00;4.30;;;;;;;;;;5096132;28;21064;-86
2020/12/19 06:14:41;;;;;;;8.20;4.67;;;;;;;;;;5098578;28;20404;-86
2020/12/19 06:17:19;;;;;;;4.80;3.97;;;;;;;;;;5098036;28;20538;-85
2020/12/19 06:19:47;;;;;;;6.57;4.50;;;;;;;;;;5087868;28;20757;-86
2020/12/19 06:22:13;;;;;;;5.47;4.47;;;;;;;;;;5104059;28;20427;-87
2020/12/19 06:24:43;;;;;;;6.47;4.27;;;;;;;;;;5088490;28;20448;-86
2020/12/19 06:27:29;;;;;;;5.50;4.50;;;;;;;;;;5105633;28;20419;-86
2020/12/19 06:29:55;;;;;;;5.43;4.60;;;;;;;;;;5099119;28;20484;-86
2020/12/19 06:32:24;;;;;;;6.83;4.00;;;;;;;;;;5106305;28;20473;-87
2020/12/19 06:35:01;;;;;;;5.77;4.13;;;;;;;;;;5100938;28;20909;-86
2020/12/19 06:37:27;;;;;;;5.03;3.90;;;;;;;;;;5103635;28;20490;-87
2020/12/19 06:40:07;;;;;;;4.40;3.70;;;;;;;;;;5106450;28;20408;-87
2020/12/19 06:42:33;;;;;;;6.30;4.27;;;;;;;;;;5105006;28;20419;-86
2020/12/19 06:45:18;;;;;;;4.87;4.37;;;;;;;;;;5103075;28;20428;-87
2020/12/19 06:47:44;;;;;;;12.00;7.40;;;;;;;;;;5096282;28;20488;-86
2020/12/19 06:50:10;;;;;;;5.47;4.50;;;;;;;;;;5094646;28;20420;-86
2020/12/19 06:52:37;;;;;;;6.93;5.10;;;;;;;;;;5093892;28;20428;-86
2020/12/19 06:55:18;;;;;;;4.93;4.10;;;;;;;;;;5096115;28;20420;-87
2020/12/19 06:57:50;;;;;;;7.87;4.87;;;;;;;;;;5095657;28;20813;-85
2020/12/19 07:00:17;;;;;;;5.60;4.23;;;;;;;;;;5096897;28;20388;-86
2020/12/19 07:02:50;;;;;;;9.50;3.93;;;;;;;;;;5095886;28;20427;-85
2020/12/19 07:05:20;;;;;;;6.33;4.53;;;;;;;;;;5096202;28;20838;-85
2020/12/19 07:07:46;;;;;;;6.27;4.93;;;;;;;;;;5096204;28;20443;-86
2020/12/19 07:10:12;;;;;;;10.17;5.13;;;;;;;;;;5077660;28;20416;-86
2020/12/19 07:12:39;;;;;;;6.40;5.10;;;;;;;;;;5101982;28;20416;-86
2020/12/19 07:15:09;;;;;;;7.67;4.03;;;;;;;;;;5116106;28;20435;-85
2020/12/19 07:17:48;;;;;;;4.83;4.40;;;;;;;;;;5108408;28;20452;-86
2020/12/19 07:20:21;;;;;;;7.57;4.60;;;;;;;;;;5104519;28;20456;-86
2020/12/19 07:22:47;;;;;;;9.50;4.33;;;;;;;;;;5103002;28;20423;-86
2020/12/19 07:25:13;;;;;;;9.07;5.80;;;;;;;;;;5103434;28;20431;-86
2020/12/19 07:27:39;;;;;;;6.10;4.60;;;;;;;;;;5102884;28;20449;-87
2020/12/19 07:30:05;;;;;;;5.30;3.60;;;;;;;;;;5104218;28;20393;-86
2020/12/19 07:32:31;;;;;;;6.17;4.60;;;;;;;;;;5104085;28;20400;-86
2020/12/19 07:34:58;;;;;;;7.57;5.30;;;;;;;;;;5104735;28;20493;-86
2020/12/19 07:37:24;;;;;;;7.80;4.97;;;;;;;;;;5101511;28;20451;-87
2020/12/19 07:39:51;;;;;;;5.07;4.17;;;;;;;;;;5105084;28;20400;-86
2020/12/19 07:42:17;;;;;;;5.53;3.80;;;;;;;;;;5104585;28;20768;-89
2020/12/19 07:44:45;;;;;;;7.90;4.97;;;;;;;;;;5103623;28;20482;-86
2020/12/19 07:47:12;;;;;;;5.80;4.40;;;;;;;;;;5104292;28;20432;-86
2020/12/19 07:49:48;;;;;;;5.63;4.03;;;;;;;;;;5102946;28;20430;-86
2020/12/19 07:52:17;;;;;;;6.53;4.60;;;;;;;;;;5102474;28;20431;-86
2020/12/19 07:54:53;;;;;;;6.47;4.77;;;;;;;;;;5103740;28;20954;-87
2020/12/19 07:57:19;;;;;;;7.60;4.50;;;;;;;;;;5104130;28;20520;-87
2020/12/19 07:59:45;;;;;;;6.77;5.00;;;;;;;;;;5103444;28;20502;-86
2020/12/19 08:02:12;;;;;;;6.20;4.97;;;;;;;;;;5104195;28;20506;-87
2020/12/19 08:04:38;;;;;;;6.87;5.13;;;;;;;;;;5104281;28;20419;-86
2020/12/19 08:07:04;;;;;;;8.70;4.80;;;;;;;;;;5104134;28;20428;-86
2020/12/19 08:09:30;;;;;;;6.87;5.60;;;;;;;;;;5105289;28;20427;-86
2020/12/19 08:11:59;;;;;;;5.50;4.70;;;;;;;;;;5098334;28;20423;-85
2020/12/19 08:14:26;;;;;;;5.67;4.87;;;;;;;;;;5098741;28;20476;-86
2020/12/19 08:16:52;;;;;;;8.60;5.30;;;;;;;;;;5118071;28;20566;-86
2020/12/19 08:19:24;;;;;;;7.10;5.03;;;;;;;;;;5097324;28;21053;-85
2020/12/19 08:21:57;;;;;;;8.03;5.27;;;;;;;;;;5096266;28;20443;-86
2020/12/19 08:24:24;;;;;;;7.77;4.30;;;;;;;;;;5095915;28;20435;-86
2020/12/19 08:26:50;;;;;;;7.40;5.57;;;;;;;;;;5099747;28;20750;-85
2020/12/19 08:29:16;;;;;;;8.43;5.73;;;;;;;;;;5098132;28;20450;-84
2020/12/19 08:31:42;;;;;;;6.37;4.70;;;;;;;;;;5080816;28;20481;-86
2020/12/19 08:34:12;;;;;;;5.80;5.20;;;;;;;;;;5098589;28;20431;-86
2020/12/19 08:36:46;;;;;;;6.40;4.50;;;;;;;;;;5098506;28;20559;-86
2020/12/19 08:39:13;;;;;;;6.37;4.50;;;;;;;;;;5096654;28;20899;-85
2020/12/19 08:41:39;;;;;;;9.37;6.30;;;;;;;;;;5100878;28;20428;-86
2020/12/19 08:44:05;;;;;;;7.60;5.10;;;;;;;;;;5098937;28;20424;-85
2020/12/19 08:46:31;;;;;;;7.57;5.40;;;;;;;;;;5083381;28;20807;-86
2020/12/19 08:49:02;;;;;;;7.60;5.50;;;;;;;;;;5100305;28;20842;-86
2020/12/19 08:51:28;;;;;;;7.10;5.50;;;;;;;;;;5100761;28;20454;-85
2020/12/19 08:54:09;;;;;;;8.50;4.83;;;;;;;;;;5101855;28;20427;-86
2020/12/19 08:56:36;;;;;;;5.67;4.00;;;;;;;;;;5101458;28;20527;-86
2020/12/19 08:59:02;;;;;;;7.00;5.13;;;;;;;;;;5101768;28;20492;-86
2020/12/19 09:01:30;;;;;;;8.00;4.73;;;;;;;;;;5109103;28;20412;-86
2020/12/19 09:04:07;;;;;;;5.57;4.93;;;;;;;;;;5108853;28;20424;-86
2020/12/19 09:06:44;;;;;;;9.97;5.90;;;;;;;;;;5093473;28;20440;-86
2020/12/19 09:09:15;;;;;;;7.87;5.93;;;;;;;;;;5107164;28;20840;-85
2020/12/19 09:11:41;;;;;;;7.70;5.20;;;;;;;;;;5106768;28;20400;-85
2020/12/19 09:14:09;;;;;;;6.80;4.83;;;;;;;;;;5104703;28;20428;-86
2020/12/19 09:16:45;;;;;;;5.83;4.63;;;;;;;;;;5103996;28;20459;-88
2020/12/19 09:19:15;;;;;;;11.70;6.67;;;;;;;;;;5104574;28;20428;-86
2020/12/19 09:21:41;;;;;;;7.90;5.30;;;;;;;;;;5104092;28;20475;-86
2020/12/19 09:24:07;;;;;;;7.63;6.40;;;;;;;;;;5103280;28;20424;-86
2020/12/19 09:26:34;;;;;;;7.50;5.60;;;;;;;;;;5103039;28;20446;-86
2020/12/19 09:29:00;;;;;;;6.73;4.57;;;;;;;;;;5102853;28;20472;-86
2020/12/19 09:31:28;;;;;;;7.00;5.00;;;;;;;;;;5103048;28;20783;-87
2020/12/19 09:33:54;;;;;;;8.97;6.60;;;;;;;;;;5103297;28;20473;-87
2020/12/19 09:36:20;;;;;;;7.30;5.20;;;;;;;;;;5104649;28;20490;-86
2020/12/19 09:38:46;;;;;;;7.03;5.27;;;;;;;;;;5102876;28;20432;-86
2020/12/19 09:41:12;;;;;;;7.07;5.50;;;;;;;;;;5103166;28;20744;-86
2020/12/19 09:43:39;;;;;;;8.07;5.63;;;;;;;;;;5104114;28;20477;-86
2020/12/19 09:46:05;;;;;;;7.87;5.60;;;;;;;;;;5105140;28;20911;-86
2020/12/19 09:48:31;;;;;;;7.80;5.30;;;;;;;;;;5102785;28;20450;-86
2020/12/19 09:50:57;;;;;;;8.53;5.10;;;;;;;;;;5105773;28;20405;-86
2020/12/19 09:53:23;;;;;;;9.30;5.87;;;;;;;;;;5104907;28;20404;-86
2020/12/19 09:55:49;;;;;;;6.30;5.60;;;;;;;;;;5103301;28;20480;-87
2020/12/19 09:58:16;;;;;;;7.37;5.47;;;;;;;;;;5105359;28;20457;-84
2020/12/19 10:00:42;;;;;;;5.40;4.67;;;;;;;;;;5104659;28;20514;-84
2020/12/19 10:03:08;;;;;;;7.83;5.97;;;;;;;;;;5104596;28;20396;-84
2020/12/19 10:05:37;;;;;;;10.57;5.30;;;;;;;;;;5102610;28;20460;-84
2020/12/19 10:08:03;;;;;;;8.00;5.33;;;;;;;;;;5103737;28;20489;-84
2020/12/19 10:10:29;;;;;;;8.40;6.37;;;;;;;;;;5101822;28;20529;-85
2020/12/19 10:12:55;;;;;;;7.43;5.07;;;;;;;;;;5102063;28;20506;-85
2020/12/19 10:15:21;;;;;;;6.97;5.40;;;;;;;;;;5101377;28;20937;-85
2020/12/19 10:17:47;;;;;;;10.37;5.87;;;;;;;;;;5100782;28;20530;-87
2020/12/19 10:20:13;;;;;;;7.50;5.70;;;;;;;;;;5082276;28;20915;-85
2020/12/19 10:22:39;;;;;;;8.03;5.77;;;;;;;;;;5101769;28;20392;-85
2020/12/19 10:25:05;;;;;;;10.90;5.90;;;;;;;;;;5101426;28;20956;-85
2020/12/19 10:27:31;;;;;;;8.17;6.53;;;;;;;;;;5102921;28;20416;-86
2020/12/19 10:29:57;;;;;;;7.80;5.37;;;;;;;;;;5100993;28;20492;-85
2020/12/19 10:32:23;;;;;;;8.33;6.00;;;;;;;;;;5102016;28;20435;-85
2020/12/19 10:34:50;;;;;;;11.57;6.67;;;;;;;;;;5100306;28;20502;-86
2020/12/19 10:37:16;;;;;;;7.93;6.57;;;;;;;;;;5101309;28;20452;-85
2020/12/19 10:39:42;;;;;;;10.40;6.10;;;;;;;;;;5099468;28;20428;-86
2020/12/19 10:42:08;;;;;;;6.83;6.07;;;;;;;;;;5099626;28;20961;-86
2020/12/19 10:44:34;;;;;;;7.57;5.97;;;;;;;;;;5100465;28;20424;-86
2020/12/19 10:47:00;;;;;;;9.50;6.67;;;;;;;;;;5099975;28;20473;-85
2020/12/19 10:49:26;;;;;;;7.00;5.43;;;;;;;;;;5102223;28;20419;-85
2020/12/19 10:51:52;;;;;;;11.67;6.63;;;;;;;;;;5102517;28;20497;-85
2020/12/19 10:54:18;;;;;;;7.43;5.93;;;;;;;;;;5101207;28;20443;-85
2020/12/19 10:56:44;;;;;;;7.10;6.00;;;;;;;;;;5101719;28;20448;-85
2020/12/19 10:59:10;;;;;;;10.00;6.70;;;;;;;;;;5110145;28;20388;-86
2020/12/19 11:01:36;;;;;;;8.23;6.63;;;;;;;;;;5087068;28;20428;-85
2020/12/19 11:04:02;;;;;;;11.93;5.63;;;;;;;;;;5102637;28;20487;-88
2020/12/19 11:06:28;;;;;;;9.07;6.30;;;;;;;;;;5107202;28;20432;-84
2020/12/19 11:08:55;;;;;;;10.93;6.77;;;;;;;;;;5115443;28;20400;-83
2020/12/19 11:11:21;;;;;;;8.43;5.93;;;;;;;;;;5108425;28;20459;-85
2020/12/19 11:13:48;;;;;;;9.13;6.30;;;;;;;;;;5103833;28;20396;-85
2020/12/19 11:16:21;;;;;;;9.60;6.37;;;;;;;;;;5086043;28;20551;-84
2020/12/19 11:18:47;;;;;;;10.33;6.53;;;;;;;;;;5103906;28;20439;-85
2020/12/19 11:21:13;;;;;;;8.63;6.33;;;;;;;;;;5085678;28;20428;-85
2020/12/19 11:23:39;;;;;;;9.83;6.43;;;;;;;;;;5104041;28;20450;-84
2020/12/19 11:26:05;;;;;;;11.33;6.90;;;;;;;;;;5103383;28;21010;-85
2020/12/19 11:28:31;;;;;;;9.60;7.07;;;;;;;;;;5097388;28;20431;-84
2020/12/19 11:30:57;;;;;;;10.00;7.00;;;;;;;;;;5094674;28;20432;-84
2020/12/19 11:33:23;;;;;;;10.50;7.33;;;;;;;;;;5095717;28;20397;-85
2020/12/19 11:35:49;;;;;;;7.87;6.97;;;;;;;;;;5096080;28;20513;-84
2020/12/19 11:38:15;;;;;;;17.30;7.00;;;;;;;;;;5098124;28;20982;-85
2020/12/19 11:40:41;;;;;;;9.40;6.50;;;;;;;;;;5096926;28;20434;-84
2020/12/19 11:43:08;;;;;;;12.40;7.13;;;;;;;;;;5093962;28;20934;-84
2020/12/19 11:45:34;;;;;;;7.70;6.03;;;;;;;;;;5099980;28;20978;-85
2020/12/19 11:48:00;;;;;;;10.90;6.53;;;;;;;;;;5098217;28;20407;-84
2020/12/19 11:50:26;;;;;;;9.27;7.63;;;;;;;;;;5098837;28;20472;-84
2020/12/19 11:52:52;;;;;;;23.63;7.77;;;;;;;;;;5098296;28;20408;-85
2020/12/19 11:55:18;;;;;;;8.33;6.37;;;;;;;;;;5097262;28;20452;-85
2020/12/19 11:57:44;;;;;;;9.17;6.73;;;;;;;;;;5099646;28;20502;-85
2020/12/19 12:00:10;;;;;;;9.50;7.30;;;;;;;;;;5097451;28;20436;-84
2020/12/19 12:02:36;;;;;;;10.03;6.93;;;;;;;;;;5098486;28;20396;-85
2020/12/19 12:05:02;;;;;;;18.07;9.33;;;;;;;;;;5100587;28;20492;-85
2020/12/19 12:07:28;;;;;;;8.20;6.73;;;;;;;;;;5101301;28;20464;-85
2020/12/19 12:09:54;;;;;;;12.73;8.10;;;;;;;;;;5099678;28;20435;-85
2020/12/19 12:12:20;;;;;;;14.33;8.43;;;;;;;;;;5099580;28;20404;-85
2020/12/19 12:14:46;;;;;;;9.37;6.60;;;;;;;;;;5100508;28;20523;-85
2020/12/19 12:17:12;;;;;;;10.60;7.80;;;;;;;;;;5101865;28;20444;-85
2020/12/19 12:19:38;;;;;;;10.53;6.67;;;;;;;;;;5102237;28;20488;-84
2020/12/19 12:22:04;;;;;;;7.70;6.00;;;;;;;;;;5098189;28;20485;-85
2020/12/19 12:24:30;;;;;;;9.47;7.77;;;;;;;;;;5097742;28;20437;-84
2020/12/19 12:26:57;;;;;;;18.13;7.97;;;;;;;;;;5095987;28;20444;-84
2020/12/19 12:29:23;;;;;;;11.10;7.27;;;;;;;;;;5096527;28;20438;-84
2020/12/19 12:31:49;;;;;;;18.40;8.47;;;;;;;;;;5096773;28;20431;-87
2020/12/19 12:34:15;;;;;;;10.13;7.20;;;;;;;;;;5101234;28;20875;-85
2020/12/19 12:36:41;;;;;;;10.33;7.53;;;;;;;;;;5097121;28;20462;-85
2020/12/19 12:39:07;;;;;;;11.40;7.50;;;;;;;;;;5093167;28;20444;-86
2020/12/19 12:41:34;;;;;;;10.93;7.23;;;;;;;;;;5091740;28;20480;-85
2020/12/19 12:44:00;;;;;;;10.13;6.17;;;;;;;;;;5110473;28;20444;-85
2020/12/19 12:46:26;;;;;;;10.97;7.33;;;;;;;;;;5109299;28;20459;-86
2020/12/19 12:48:52;;;;;;;7.10;5.80;;;;;;;;;;5100085;28;20413;-86
2020/12/19 12:51:18;;;;;;;8.53;6.10;;;;;;;;;;5106217;28;20420;-86
2020/12/19 12:53:47;;;;;;;11.93;8.47;;;;;;;;;;5090432;28;20419;-86
2020/12/19 12:56:15;;;;;;;12.07;7.63;;;;;;;;;;5096061;28;20443;-88
2020/12/19 12:58:42;;;;;;;9.03;6.93;;;;;;;;;;5081532;28;20416;-86
2020/12/19 13:01:08;;;;;;;10.27;6.97;;;;;;;;;;5097740;28;20465;-86
2020/12/19 13:03:34;;;;;;;13.67;7.60;;;;;;;;;;5097286;28;20416;-86
2020/12/19 13:06:00;;;;;;;10.20;7.33;;;;;;;;;;5096754;28;20444;-86
2020/12/19 13:08:26;;;;;;;12.20;6.93;;;;;;;;;;5096629;28;20779;-86
2020/12/19 13:10:52;;;;;;;9.90;6.87;;;;;;;;;;5097455;28;20424;-86
2020/12/19 13:13:18;;;;;;;13.63;7.00;;;;;;;;;;5099666;28;20424;-86
2020/12/19 13:15:44;;;;;;;8.73;6.97;;;;;;;;;;5080885;28;20448;-86
2020/12/19 13:18:12;;;;;;;10.33;6.80;;;;;;;;;;5097988;28;20451;-87
2020/12/19 13:20:38;;;;;;;8.57;6.57;;;;;;;;;;5096537;28;20482;-85
2020/12/19 13:23:04;;;;;;;8.23;6.83;;;;;;;;;;5098453;28;20404;-86
2020/12/19 13:25:30;;;;;;;11.77;7.57;;;;;;;;;;5100448;28;20419;-86
2020/12/19 13:27:56;;;;;;;10.80;7.17;;;;;;;;;;5103337;28;20420;-86
2020/12/19 13:30:22;;;;;;;15.43;6.93;;;;;;;;;;5102508;28;20765;-86
2020/12/19 13:32:48;;;;;;;11.73;7.60;;;;;;;;;;5100414;28;20419;-85
2020/12/19 13:35:17;;;;;;;9.33;7.40;;;;;;;;;;5101394;28;20428;-86
2020/12/19 13:37:43;;;;;;;9.27;6.93;;;;;;;;;;5100382;28;20509;-86
2020/12/19 13:40:09;;;;;;;12.43;8.07;;;;;;;;;;5104551;28;20439;-86
2020/12/19 13:42:36;;;;;;;13.27;8.30;;;;;;;;;;5102601;28;20505;-87
2020/12/19 13:45:03;;;;;;;10.83;6.90;;;;;;;;;;5100802;28;20428;-87
2020/12/19 13:47:29;;;;;;;12.03;8.53;;;;;;;;;;5084692;28;20432;-87
2020/12/19 13:49:55;;;;;;;11.23;7.07;;;;;;;;;;5103060;28;20435;-87
2020/12/19 13:52:21;;;;;;;15.70;8.30;;;;;;;;;;5102912;28;20811;-87
2020/12/19 13:54:47;;;;;;;9.87;6.90;;;;;;;;;;5102985;28;20400;-86
2020/12/19 13:57:14;;;;;;;8.03;5.83;;;;;;;;;;5103316;28;20531;-87
2020/12/19 13:59:40;;;;;;;7.83;6.13;;;;;;;;;;5102284;28;20404;-87
2020/12/19 14:02:08;;;;;;;11.53;7.93;;;;;;;;;;5102797;28;20420;-87
2020/12/19 14:04:34;;;;;;;17.13;7.70;;;;;;;;;;5103017;28;20483;-86
2020/12/19 14:07:00;;;;;;;11.80;7.57;;;;;;;;;;5119665;28;20474;-85
2020/12/19 14:09:27;;;;;;;10.50;8.00;;;;;;;;;;5105243;28;20409;-85
2020/12/19 14:11:53;;;;;;;10.70;7.70;;;;;;;;;;5096737;28;20428;-86
2020/12/19 14:14:19;;;;;;;11.83;8.50;;;;;;;;;;5080029;28;20404;-86
2020/12/19 14:16:45;;;;;;;15.03;8.60;;;;;;;;;;5097397;28;20463;-86
2020/12/19 14:19:11;;;;;;;11.40;8.10;;;;;;;;;;5098935;28;20408;-86
2020/12/19 14:21:38;;;;;;;11.03;8.03;;;;;;;;;;5096509;28;20428;-86
2020/12/19 14:24:08;;;;;;;12.10;8.70;;;;;;;;;;5096800;28;20446;-86
2020/12/19 14:26:34;;;;;;;11.83;7.90;;;;;;;;;;5098727;28;20822;-86
2020/12/19 14:29:00;;;;;;;13.07;9.60;;;;;;;;;;5099647;28;20419;-86
2020/12/19 14:31:27;;;;;;;12.53;8.40;;;;;;;;;;5097946;28;20431;-86
2020/12/19 14:33:53;;;;;;;10.80;8.03;;;;;;;;;;5098630;28;20432;-86
2020/12/19 14:36:20;;;;;;;11.43;7.53;;;;;;;;;;5097883;28;20448;-88
2020/12/19 14:38:46;;;;;;;10.60;7.30;;;;;;;;;;5099926;28;20416;-86